Archival Weather

Tokyo Intl

Tokyo, Japan (RJTT)

Report from: Friday, September 22, 2023 11:30 PM JST
Current time: Saturday, March 2, 2024 7:01 PM JST

Current weather – Weather history – Daily summaries
Weather forecast

Present weatherRain showers, rain showers, mist
Temperature23.0°C (73.4°F)
Dew point22.0°C (71.6°F)
Winds 18 kts (9.3 m/s, 20.7 mph) North-Northeast (30°)
Visibility6.2 mi. (10 km)
Clouds Few clouds 500 ft. (152 m)
Few clouds 500 ft. (152 m)
Ceiling: Broken clouds 800 ft. (244 m)
Scattered clouds 2,000 ft. (610 m)
Broken clouds 3,000 ft. (914 m)
Altimeter29.91 in.Hg (1013 mB)
Relative humidity94 %
Density altitude1,294 ft. (395 m)
Flight conditions Instrument Meteorological Conditions
Raw dataRJTT 221430Z 03018KT 9999 SHRA FEW005 SCT020 BKN030 23/22 Q1013 TEMPO 3000 SHRA BR FEW005 BKN008
An error has occurred. This application may no longer respond until reloaded. Reload 🗙